createdAt,value
2022-12-19T00:01:48.653Z,38.10
2022-12-19T00:04:19.770Z,34.73
2022-12-19T00:06:46.857Z,38.50
2022-12-19T00:09:14.193Z,35.03
2022-12-19T00:11:41.343Z,36.93
2022-12-19T00:14:11.556Z,33.27
2022-12-19T00:16:38.938Z,38.03
2022-12-19T00:19:06.644Z,39.27
2022-12-19T00:21:35.424Z,41.67
2022-12-19T00:24:08.681Z,39.50
2022-12-19T00:26:47.998Z,31.93
2022-12-19T00:29:15.081Z,36.27
2022-12-19T00:31:43.440Z,42.10
2022-12-19T00:34:10.538Z,41.30
2022-12-19T00:36:37.657Z,37.50
2022-12-19T00:39:08.484Z,39.80
2022-12-19T00:41:41.519Z,35.90
2022-12-19T00:44:12.270Z,33.50
2022-12-19T00:46:39.318Z,38.73
2022-12-19T00:49:06.509Z,47.77
2022-12-19T00:51:35.300Z,42.73
2022-12-19T00:54:05.293Z,40.80
2022-12-19T00:56:37.992Z,40.50
2022-12-19T00:59:06.137Z,46.87
2022-12-19T01:01:36.374Z,37.30
2022-12-19T01:04:27.885Z,43.70
2022-12-19T01:06:52.079Z,37.97
2022-12-19T01:09:21.880Z,37.77
2022-12-19T01:12:07.212Z,42.30
2022-12-19T01:14:34.462Z,39.23
2022-12-19T01:17:01.534Z,50.77
2022-12-19T01:19:28.854Z,40.37
2022-12-19T01:21:55.740Z,44.30
2022-12-19T01:24:23.400Z,45.93
2022-12-19T01:26:50.337Z,44.00
2022-12-19T01:29:17.186Z,41.23
2022-12-19T01:31:44.313Z,45.57
2022-12-19T01:34:11.625Z,47.63
2022-12-19T01:36:39.795Z,45.47
2022-12-19T01:39:08.443Z,39.33
2022-12-19T01:41:35.942Z,42.20
2022-12-19T01:44:08.073Z,43.90
2022-12-19T01:46:48.230Z,41.77
2022-12-19T01:49:19.236Z,46.03
2022-12-19T01:51:52.133Z,45.47
2022-12-19T01:54:22.495Z,39.67
2022-12-19T01:56:53.294Z,40.07
2022-12-19T01:59:24.813Z,33.27
2022-12-19T02:01:57.463Z,44.23
2022-12-19T02:04:31.965Z,44.27
2022-12-19T02:07:03.208Z,38.37
2022-12-19T02:09:43.896Z,43.63
2022-12-19T02:12:10.900Z,38.67
2022-12-19T02:14:37.777Z,38.77
2022-12-19T02:17:11.337Z,43.63
2022-12-19T02:20:12.538Z,44.00
2022-12-19T02:23:01.444Z,36.87
2022-12-19T02:25:56.724Z,33.60
2022-12-19T02:29:01.188Z,38.53
2022-12-19T02:31:34.731Z,39.67
2022-12-19T02:34:11.198Z,39.87
2022-12-19T02:36:45.423Z,37.50
2022-12-19T02:39:49.041Z,48.67
2022-12-19T02:42:25.564Z,46.07
2022-12-19T02:44:55.662Z,38.80
2022-12-19T02:47:23.064Z,39.83
2022-12-19T02:49:50.020Z,46.20
2022-12-19T02:52:20.006Z,41.60
2022-12-19T02:54:50.264Z,41.90
2022-12-19T02:57:36.478Z,41.03
2022-12-19T03:00:06.843Z,38.37
2022-12-19T03:02:46.567Z,44.57
2022-12-19T03:05:46.051Z,40.57
2022-12-19T03:08:33.857Z,47.00
2022-12-19T03:11:15.769Z,48.67
2022-12-19T03:13:51.201Z,45.07
2022-12-19T03:16:17.851Z,33.73
2022-12-19T03:18:45.621Z,38.67
2022-12-19T03:21:34.389Z,35.97
2022-12-19T03:24:02.647Z,39.60
2022-12-19T03:26:34.382Z,37.57
2022-12-19T03:29:16.100Z,42.97
2022-12-19T03:31:45.935Z,39.73
2022-12-19T03:34:17.405Z,45.00
2022-12-19T03:36:48.700Z,45.57
2022-12-19T03:39:16.514Z,38.40
2022-12-19T03:42:03.603Z,35.43
2022-12-19T03:44:41.731Z,36.53
2022-12-19T03:47:30.833Z,36.93
2022-12-19T03:49:57.520Z,31.90
2022-12-19T03:52:38.998Z,36.30
2022-12-19T03:55:29.973Z,49.47
2022-12-19T03:58:06.087Z,41.20
2022-12-19T04:00:36.563Z,37.30
2022-12-19T04:03:05.171Z,32.30
2022-12-19T04:05:33.801Z,38.87
2022-12-19T04:08:04.782Z,31.70
2022-12-19T04:10:38.568Z,44.40
2022-12-19T04:13:12.866Z,42.13
2022-12-19T04:16:11.531Z,34.00
2022-12-19T04:18:41.076Z,35.47
2022-12-19T04:21:41.812Z,42.00
2022-12-19T04:24:15.846Z,36.40
2022-12-19T04:26:47.993Z,42.53
2022-12-19T04:29:15.823Z,37.57
2022-12-19T04:31:43.826Z,32.17
2022-12-19T04:34:11.168Z,39.70
2022-12-19T04:36:38.394Z,37.27
2022-12-19T04:39:05.076Z,33.87
2022-12-19T04:41:31.759Z,38.20
2022-12-19T04:43:58.411Z,32.40
2022-12-19T04:46:25.092Z,39.67
2022-12-19T04:48:52.091Z,37.70
2022-12-19T04:51:19.179Z,40.83
2022-12-19T04:53:45.843Z,44.50
2022-12-19T04:56:12.503Z,43.13
2022-12-19T04:58:39.450Z,36.90
2022-12-19T05:01:07.940Z,40.10
2022-12-19T05:03:35.784Z,38.23
2022-12-19T05:06:15.596Z,41.13
2022-12-19T05:08:43.395Z,43.50
2022-12-19T05:11:15.935Z,47.93
2022-12-19T05:13:46.336Z,42.70
2022-12-19T05:16:13.423Z,52.50
2022-12-19T05:18:40.534Z,44.53
2022-12-19T05:21:07.443Z,48.77
2022-12-19T05:23:34.829Z,43.80
2022-12-19T05:26:02.716Z,40.67
2022-12-19T05:28:30.059Z,44.33
2022-12-19T05:31:15.903Z,52.40
2022-12-19T05:33:43.489Z,42.93
2022-12-19T05:36:11.363Z,40.00
2022-12-19T05:38:38.323Z,48.87
2022-12-19T05:41:14.451Z,45.93
2022-12-19T05:43:41.902Z,46.97
2022-12-19T05:46:09.067Z,48.97
2022-12-19T05:48:36.851Z,51.10
2022-12-19T05:51:04.189Z,46.50
2022-12-19T05:53:30.952Z,46.63
2022-12-19T05:56:08.562Z,54.33
2022-12-19T05:58:36.519Z,46.33
2022-12-19T06:01:08.848Z,56.63
2022-12-19T06:03:35.731Z,47.53
2022-12-19T06:06:05.509Z,51.40
2022-12-19T06:08:33.363Z,55.03
2022-12-19T06:11:02.119Z,59.00
2022-12-19T06:13:29.667Z,55.20
2022-12-19T06:16:01.944Z,53.87
2022-12-19T06:18:29.714Z,47.67
2022-12-19T06:21:00.991Z,55.47
2022-12-19T06:23:29.554Z,50.83
2022-12-19T06:25:58.345Z,55.27
2022-12-19T06:28:26.289Z,47.77
2022-12-19T06:30:55.681Z,50.97
2022-12-19T06:33:22.816Z,56.47
2022-12-19T06:35:56.832Z,66.00
2022-12-19T06:38:23.445Z,53.10
2022-12-19T06:41:09.000Z,58.30
2022-12-19T06:43:35.832Z,54.77
2022-12-19T06:46:02.519Z,45.30
2022-12-19T06:48:29.336Z,64.50
2022-12-19T06:50:56.319Z,48.50
2022-12-19T06:53:23.326Z,49.40
2022-12-19T06:55:53.377Z,56.73
2022-12-19T06:58:24.092Z,60.63
2022-12-19T07:00:52.775Z,47.33
2022-12-19T07:03:25.362Z,47.43
2022-12-19T07:05:52.894Z,51.50
2022-12-19T07:08:19.580Z,51.13
2022-12-19T07:10:46.369Z,51.87
2022-12-19T07:13:13.090Z,44.70
2022-12-19T07:15:40.486Z,49.47
2022-12-19T07:18:09.078Z,51.93
2022-12-19T07:20:43.357Z,41.87
2022-12-19T07:23:15.679Z,45.47
2022-12-19T07:25:42.548Z,45.93
2022-12-19T07:28:10.087Z,47.40
2022-12-19T07:30:36.836Z,51.13
2022-12-19T07:33:03.715Z,52.80
2022-12-19T07:35:30.396Z,43.07
2022-12-19T07:38:05.930Z,48.73
2022-12-19T07:40:33.882Z,46.00
2022-12-19T07:43:05.753Z,48.10
2022-12-19T07:45:33.117Z,47.93
2022-12-19T07:48:04.034Z,46.77
2022-12-19T07:50:30.835Z,39.97
2022-12-19T07:52:58.442Z,42.63
2022-12-19T07:55:26.608Z,50.83
2022-12-19T07:57:53.824Z,40.93
2022-12-19T08:00:21.504Z,50.80
2022-12-19T08:02:48.822Z,48.63
2022-12-19T08:05:16.081Z,46.70
2022-12-19T08:07:42.969Z,50.67
2022-12-19T08:10:12.647Z,49.93
2022-12-19T08:12:39.574Z,55.10
2022-12-19T08:15:07.859Z,45.37
2022-12-19T08:17:35.986Z,46.70
2022-12-19T08:20:03.051Z,53.40
2022-12-19T08:22:31.687Z,44.50
2022-12-19T08:24:58.632Z,49.07
2022-12-19T08:27:26.619Z,53.53
2022-12-19T08:29:53.569Z,45.00
2022-12-19T08:32:21.767Z,39.50
2022-12-19T08:34:50.120Z,48.70
2022-12-19T08:37:17.479Z,42.90
2022-12-19T08:39:44.690Z,46.80
2022-12-19T08:42:11.972Z,40.70
2022-12-19T08:44:38.836Z,48.17
2022-12-19T08:47:05.825Z,54.57
2022-12-19T08:49:32.696Z,45.97
2022-12-19T08:51:59.552Z,51.17
2022-12-19T08:54:27.202Z,48.20
2022-12-19T08:56:54.142Z,44.60
2022-12-19T08:59:31.302Z,54.00
2022-12-19T09:02:02.460Z,51.20
2022-12-19T09:06:01.831Z,49.53
2022-12-19T09:07:18.221Z,48.23
2022-12-19T09:09:45.995Z,53.57
2022-12-19T09:12:13.890Z,46.10
2022-12-19T09:14:40.786Z,50.73
2022-12-19T09:17:07.887Z,41.37
2022-12-19T09:19:34.829Z,50.53
2022-12-19T09:22:01.891Z,53.43
2022-12-19T09:24:29.156Z,48.30
2022-12-19T09:26:56.055Z,47.40
2022-12-19T09:29:23.071Z,47.03
2022-12-19T09:31:55.487Z,55.20
2022-12-19T09:34:36.987Z,43.77
2022-12-19T09:37:08.440Z,47.37
2022-12-19T09:39:36.426Z,45.10
2022-12-19T09:42:31.062Z,53.07
2022-12-19T09:45:31.900Z,38.30
2022-12-19T09:48:01.272Z,49.07
2022-12-19T09:50:51.399Z,38.77
2022-12-19T09:53:38.602Z,44.80
2022-12-19T09:56:14.309Z,48.17
2022-12-19T09:58:52.733Z,53.57
2022-12-19T10:01:26.138Z,38.37
2022-12-19T10:04:10.619Z,42.40
2022-12-19T10:07:11.965Z,33.53
2022-12-19T10:11:54.813Z,42.87
2022-12-19T10:12:51.937Z,46.20
2022-12-19T10:15:26.149Z,44.07
2022-12-19T10:18:16.871Z,46.80
2022-12-19T10:20:55.073Z,45.80
2022-12-19T10:23:43.507Z,35.10
2022-12-19T10:26:22.443Z,41.20
2022-12-19T10:29:18.711Z,42.83
2022-12-19T10:31:55.976Z,38.67
2022-12-19T10:34:28.379Z,39.17
2022-12-19T10:37:23.224Z,40.00
2022-12-19T10:40:06.473Z,39.23
2022-12-19T10:43:10.954Z,37.77
2022-12-19T10:46:02.577Z,45.20
2022-12-19T10:48:31.392Z,35.40
2022-12-19T10:51:03.577Z,35.87
2022-12-19T10:53:34.523Z,41.43
2022-12-19T10:56:11.596Z,30.70
2022-12-19T10:58:43.431Z,41.23
2022-12-19T11:01:21.729Z,39.13
2022-12-19T11:03:53.537Z,41.80
2022-12-19T11:07:11.097Z,37.97
2022-12-19T11:09:48.184Z,36.53
2022-12-19T11:16:19.732Z,36.47
2022-12-19T11:21:07.240Z,38.60
2022-12-19T11:26:00.016Z,36.57
2022-12-19T11:29:27.156Z,30.90
2022-12-19T11:30:48.004Z,28.20
2022-12-19T11:30:48.369Z,36.30
2022-12-19T11:33:22.792Z,39.60
2022-12-19T11:35:55.612Z,35.60
2022-12-19T11:38:41.220Z,38.20
2022-12-19T11:41:22.845Z,39.47
2022-12-19T11:43:52.760Z,33.13
2022-12-19T11:46:45.691Z,33.90
2022-12-19T11:49:40.702Z,28.70
2022-12-19T11:53:02.095Z,29.87
2022-12-19T11:55:31.008Z,35.63
2022-12-19T11:57:58.454Z,31.33
2022-12-19T12:00:25.423Z,26.17
2022-12-19T12:03:21.440Z,35.20
2022-12-19T12:05:50.007Z,34.00
2022-12-19T12:10:27.848Z,33.80
2022-12-19T12:19:21.819Z,36.33
2022-12-19T12:29:25.562Z,36.70
2022-12-19T12:31:11.976Z,34.30
2022-12-19T12:31:23.790Z,32.60
2022-12-19T12:31:40.621Z,33.83
2022-12-19T12:31:45.828Z,36.10
2022-12-19T12:31:50.782Z,31.57
2022-12-19T12:35:40.501Z,37.53
2022-12-19T12:39:50.778Z,31.77
2022-12-19T12:42:29.378Z,32.00
2022-12-19T12:44:58.947Z,31.10
2022-12-19T12:47:27.857Z,30.03
2022-12-19T12:50:03.965Z,32.57
2022-12-19T12:52:43.429Z,28.20
2022-12-19T12:55:37.353Z,31.90
2022-12-19T12:58:09.119Z,35.03
2022-12-19T13:00:39.123Z,34.13
2022-12-19T13:03:12.809Z,28.07
2022-12-19T13:06:04.960Z,32.57
2022-12-19T13:08:49.550Z,33.80
2022-12-19T13:12:01.152Z,29.60
2022-12-19T13:14:34.443Z,30.60
2022-12-19T13:17:02.356Z,38.77
2022-12-19T13:19:38.186Z,34.03
2022-12-19T13:22:05.239Z,34.53
2022-12-19T13:24:44.997Z,27.80
2022-12-19T13:27:21.181Z,29.17
2022-12-19T13:30:00.996Z,27.23
2022-12-19T13:32:39.413Z,26.90
2022-12-19T13:37:17.696Z,27.03
2022-12-19T13:39:57.593Z,25.30
2022-12-19T13:41:44.173Z,24.67
2022-12-19T13:44:12.090Z,28.77
2022-12-19T13:46:42.980Z,27.27
2022-12-19T13:49:28.808Z,29.07
2022-12-19T13:51:58.833Z,22.40
2022-12-19T13:54:37.313Z,28.57
2022-12-19T13:57:22.941Z,28.40
2022-12-19T14:00:00.495Z,26.23
2022-12-19T14:02:44.556Z,22.20
2022-12-19T14:06:16.374Z,24.50
2022-12-19T14:08:27.413Z,20.40
2022-12-19T14:11:44.049Z,23.97
2022-12-19T14:14:17.683Z,25.40
2022-12-19T14:16:47.911Z,23.43
2022-12-19T14:19:27.796Z,20.90
2022-12-19T14:22:06.637Z,23.23
2022-12-19T14:24:40.383Z,25.20
2022-12-19T14:28:26.551Z,24.97
2022-12-19T14:30:27.836Z,21.57
2022-12-19T14:33:39.512Z,31.43
2022-12-19T14:36:07.091Z,26.57
2022-12-19T14:39:22.534Z,28.33
2022-12-19T14:41:48.964Z,26.60
2022-12-19T14:52:51.234Z,21.97
2022-12-19T14:54:09.040Z,23.27
2022-12-19T14:54:18.497Z,23.50
2022-12-19T14:54:47.717Z,17.87
2022-12-19T14:56:16.428Z,17.27
2022-12-19T14:58:54.241Z,19.20
2022-12-19T15:01:23.568Z,19.30
2022-12-19T15:04:51.550Z,20.00
2022-12-19T15:07:06.768Z,17.80
2022-12-19T15:11:00.107Z,21.60
2022-12-19T15:13:46.681Z,18.40
2022-12-19T15:15:39.023Z,25.83
2022-12-19T15:18:25.695Z,20.90
2022-12-19T15:20:56.206Z,24.77
2022-12-19T15:23:24.322Z,24.93
2022-12-19T15:26:08.748Z,21.00
2022-12-19T15:28:39.027Z,23.40
2022-12-19T15:31:18.592Z,15.83
2022-12-19T15:34:07.099Z,22.57
2022-12-19T15:36:32.424Z,21.70
2022-12-19T15:38:59.533Z,26.37
2022-12-19T15:41:26.605Z,14.53
2022-12-19T15:44:03.731Z,17.93
2022-12-19T15:46:32.816Z,16.43
2022-12-19T15:48:59.795Z,20.43
2022-12-19T15:51:26.791Z,16.97
2022-12-19T15:53:54.889Z,19.37
2022-12-19T15:56:27.013Z,16.60
2022-12-19T15:58:56.120Z,22.93
2022-12-19T16:01:23.680Z,15.60
2022-12-19T16:03:51.260Z,25.60
2022-12-19T16:06:18.619Z,20.93
2022-12-19T16:08:45.569Z,17.43
2022-12-19T16:11:23.835Z,19.23
2022-12-19T16:13:56.917Z,19.40
2022-12-19T16:16:25.200Z,21.83
2022-12-19T16:18:52.186Z,23.80
2022-12-19T16:21:33.235Z,27.47
2022-12-19T16:24:01.135Z,19.77
2022-12-19T16:26:34.572Z,22.83
2022-12-19T16:29:02.544Z,23.60
2022-12-19T16:31:29.712Z,27.60
2022-12-19T16:33:56.672Z,23.30
2022-12-19T16:36:23.576Z,21.10
2022-12-19T16:38:50.460Z,23.60
2022-12-19T16:41:24.977Z,18.07
2022-12-19T16:43:52.499Z,17.30
2022-12-19T16:46:22.141Z,20.07
2022-12-19T16:48:50.058Z,19.53
2022-12-19T16:51:23.070Z,20.83
2022-12-19T16:53:52.157Z,16.50
2022-12-19T16:56:39.528Z,15.23
2022-12-19T16:59:19.093Z,17.13
2022-12-19T17:01:47.323Z,20.43
2022-12-19T17:04:17.713Z,18.17
2022-12-19T17:06:44.837Z,19.07
2022-12-19T17:09:18.285Z,15.80
2022-12-19T17:11:48.399Z,14.67
2022-12-19T17:14:24.941Z,18.60
2022-12-19T17:16:55.243Z,17.70
2022-12-19T17:19:32.173Z,21.63
2022-12-19T17:21:59.102Z,19.50
2022-12-19T17:24:26.121Z,23.20
2022-12-19T17:26:53.112Z,23.33
2022-12-19T17:29:19.939Z,18.80
2022-12-19T17:31:47.699Z,17.47
2022-12-19T17:34:31.471Z,21.93
2022-12-19T17:37:00.455Z,20.30
2022-12-19T17:39:46.142Z,17.73
2022-12-19T17:42:37.449Z,22.17
2022-12-19T17:45:28.080Z,18.20
2022-12-19T17:48:02.355Z,16.30
2022-12-19T17:50:35.154Z,13.30
2022-12-19T17:53:02.023Z,17.57
2022-12-19T17:55:30.849Z,15.60
2022-12-19T17:57:58.511Z,15.33
2022-12-19T18:00:30.757Z,16.83
2022-12-19T18:03:02.906Z,15.03
2022-12-19T18:05:34.179Z,19.93
2022-12-19T18:08:01.041Z,12.63
2022-12-19T18:10:30.560Z,16.03
2022-12-19T18:12:58.005Z,18.27
2022-12-19T18:15:25.678Z,20.03
2022-12-19T18:17:53.985Z,17.70
2022-12-19T18:20:32.703Z,15.13
2022-12-19T18:23:00.744Z,16.33
2022-12-19T18:25:31.171Z,15.40
2022-12-19T18:27:58.428Z,16.13
2022-12-19T18:30:26.002Z,18.17
2022-12-19T18:32:59.464Z,17.50
2022-12-19T18:35:30.320Z,16.17
2022-12-19T18:38:00.251Z,16.77
2022-12-19T18:40:31.575Z,17.40
2022-12-19T18:42:59.602Z,17.07
2022-12-19T18:45:36.031Z,16.13
2022-12-19T18:48:08.163Z,16.93
2022-12-19T18:50:35.373Z,16.23
2022-12-19T18:53:02.473Z,13.77
2022-12-19T18:55:32.606Z,15.80
2022-12-19T18:57:59.874Z,17.73
2022-12-19T19:00:28.415Z,12.50
2022-12-19T19:03:02.422Z,17.43
2022-12-19T19:05:31.543Z,19.43
2022-12-19T19:08:11.424Z,12.40
2022-12-19T19:10:38.462Z,17.33
2022-12-19T19:13:10.160Z,14.13
2022-12-19T19:16:00.117Z,17.63
2022-12-19T19:18:37.331Z,16.67
2022-12-19T19:21:06.158Z,15.73
2022-12-19T19:23:37.845Z,14.57
2022-12-19T19:26:05.387Z,15.10
2022-12-19T19:28:32.475Z,17.73
2022-12-19T19:31:01.869Z,16.03
2022-12-19T19:33:36.036Z,17.17
2022-12-19T19:36:12.181Z,16.07
2022-12-19T19:38:42.381Z,23.00
2022-12-19T19:41:09.478Z,15.87
2022-12-19T19:43:36.756Z,22.43
2022-12-19T19:46:04.073Z,19.73
2022-12-19T19:48:31.315Z,18.60
2022-12-19T19:50:58.723Z,14.23
2022-12-19T19:53:25.671Z,16.00
2022-12-19T19:56:00.980Z,16.93
2022-12-19T19:58:29.145Z,14.13
2022-12-19T20:00:56.943Z,14.73
2022-12-19T20:03:24.254Z,15.50
2022-12-19T20:05:58.385Z,13.13
2022-12-19T20:08:25.394Z,17.60
2022-12-19T20:11:00.409Z,12.63
2022-12-19T20:13:29.730Z,14.53
2022-12-19T20:16:08.049Z,19.33
2022-12-19T20:18:36.325Z,16.53
2022-12-19T20:21:05.580Z,14.30
2022-12-19T20:23:37.040Z,16.90
2022-12-19T20:26:04.906Z,15.10
2022-12-19T20:28:32.116Z,18.60
2022-12-19T20:30:59.830Z,17.47
2022-12-19T20:33:26.929Z,15.40
2022-12-19T20:35:57.835Z,14.10
2022-12-19T20:38:25.942Z,16.50
2022-12-19T20:40:55.778Z,13.40
2022-12-19T20:43:23.812Z,10.93
2022-12-19T20:45:50.996Z,14.57
2022-12-19T20:48:18.626Z,11.63
2022-12-19T20:50:45.489Z,15.47
2022-12-19T20:53:12.319Z,10.77
2022-12-19T20:55:39.237Z,9.90
2022-12-19T20:58:06.364Z,10.77
2022-12-19T21:00:33.486Z,10.23
2022-12-19T21:03:27.187Z,11.83
2022-12-19T21:05:55.611Z,10.77
2022-12-19T21:08:23.486Z,11.83
2022-12-19T21:10:50.847Z,12.13
2022-12-19T21:13:17.718Z,10.80
2022-12-19T21:15:45.020Z,11.70
2022-12-19T21:18:11.942Z,10.50
2022-12-19T21:20:39.499Z,10.10
2022-12-19T21:23:06.424Z,10.23
2022-12-19T21:25:33.343Z,10.07
2022-12-19T21:28:00.353Z,7.93
2022-12-19T21:30:27.187Z,13.10
2022-12-19T21:32:54.087Z,9.30
2022-12-19T21:35:21.174Z,10.73
2022-12-19T21:37:51.257Z,10.43
2022-12-19T21:40:19.227Z,8.13
2022-12-19T21:42:47.134Z,11.10
2022-12-19T21:45:15.850Z,9.57
2022-12-19T21:47:43.077Z,11.07
2022-12-19T21:50:13.045Z,10.73
2022-12-19T21:52:40.394Z,11.40
2022-12-19T21:55:08.918Z,10.33
2022-12-19T21:57:40.283Z,9.93
2022-12-19T22:00:09.594Z,9.17
2022-12-19T22:02:36.861Z,12.63
2022-12-19T22:05:05.373Z,9.80
2022-12-19T22:07:32.573Z,8.10
2022-12-19T22:09:59.382Z,9.27
2022-12-19T22:12:26.230Z,9.73
2022-12-19T22:14:53.254Z,11.23
2022-12-19T22:17:20.359Z,12.10
2022-12-19T22:19:47.410Z,9.40
2022-12-19T22:22:17.341Z,12.00
2022-12-19T22:24:44.399Z,9.10
2022-12-19T22:27:11.495Z,12.83
2022-12-19T22:29:38.481Z,13.63
2022-12-19T22:32:05.683Z,10.10
2022-12-19T22:34:32.648Z,10.90
2022-12-19T22:37:00.658Z,6.57
2022-12-19T22:39:27.736Z,9.90
2022-12-19T22:41:54.922Z,12.90
2022-12-19T22:44:24.000Z,7.87
2022-12-19T22:46:52.313Z,13.83
2022-12-19T22:49:19.568Z,11.83
2022-12-19T22:51:46.700Z,11.77
2022-12-19T22:54:14.016Z,9.83
2022-12-19T22:56:41.320Z,9.00
2022-12-19T22:59:09.272Z,9.70
2022-12-19T23:01:39.382Z,10.47
2022-12-19T23:04:08.086Z,7.90
2022-12-19T23:06:37.168Z,8.03
2022-12-19T23:09:09.132Z,10.47
2022-12-19T23:11:38.404Z,9.53
2022-12-19T23:14:08.142Z,13.67
2022-12-19T23:16:35.298Z,8.80
2022-12-19T23:19:02.308Z,10.47
2022-12-19T23:21:30.279Z,8.63
2022-12-19T23:23:57.343Z,8.50
2022-12-19T23:26:32.873Z,11.17
2022-12-19T23:29:06.495Z,7.30
2022-12-19T23:31:34.713Z,8.20
2022-12-19T23:34:01.802Z,7.50
2022-12-19T23:39:19.557Z,6.50
2022-12-19T23:41:46.445Z,21.77
2022-12-19T23:44:13.583Z,7.10
2022-12-19T23:46:40.444Z,10.93
2022-12-19T23:49:07.318Z,16.37
2022-12-19T23:51:34.205Z,9.33
2022-12-19T23:54:01.137Z,11.43
2022-12-19T23:56:30.856Z,9.27
2022-12-19T23:58:58.517Z,9.80
